Somerset, Texas
Current Conditions -  °F | °C
As of 5:03 PM on Tuesday 21 Oct 2014 (Local Time) from KSKF Reporting Station
Scattered Clouds Scattered Clouds  
Wind Chill: 29°   Ceiling: Unl
Heat Index: 29°   Visibility: 10mi
Dew Point: 13°   Wind: 6mph
Humidity: 37%   Direction: 90°E
Pressure: 29.96"   Gusts: NA
Location:  29.23°N, 98.66°W
Report Text: KSKF 212203Z AUTO 09005KT 10SM SCT070 29/13 A2996 RMK AO2 $
Loading
Personal Weather Stations






























Interactive Weather Map
Tropical Storm Tracking
New forecast layout! Learn more

10-Day Weather Forecast

Advertisements
Track Severe Weather on mobile